Time;durP1;ratioP1;P1;durP2;ratioP2;P2;SDS_P1;SDS_P2;PMS_P1;PMS_P2;Temp;Humidity;BMP_temperature;BMP_pressure;BME280_temperature;BME280_humidity;BME280_pressure;Samples;Min_cycle;Max_cycle;Signal;HPM_P1;HPM_P2
2021/08/28 00:01:29;;;;;;;;;;;13.10;99.90;;;;;;5068364;28;20255;-72
2021/08/28 00:03:54;;;;;;;;;;;13.10;99.90;;;;;;5069657;28;19935;-72
2021/08/28 00:06:20;;;;;;;;;;;13.10;99.90;;;;;;5069838;28;19921;-72
2021/08/28 00:08:45;;;;;;;;;;;13.10;99.90;;;;;;5068448;28;19943;-72
2021/08/28 00:11:10;;;;;;;;;;;13.10;99.90;;;;;;5069940;28;20007;-72
2021/08/28 00:13:36;;;;;;;;;;;13.10;99.90;;;;;;5070223;28;19912;-72
2021/08/28 00:16:01;;;;;;;;;;;13.10;99.90;;;;;;5069178;28;20336;-72
2021/08/28 00:18:27;;;;;;;;;;;13.10;99.90;;;;;;5070235;28;20019;-72
2021/08/28 00:20:52;;;;;;;;;;;13.10;99.90;;;;;;5069967;28;20393;-72
2021/08/28 00:23:18;;;;;;;;;;;13.00;99.90;;;;;;5066815;28;19977;-73
2021/08/28 00:25:43;;;;;;;;;;;13.00;99.90;;;;;;5066674;28;19913;-71
2021/08/28 00:28:09;;;;;;;;;;;13.00;99.90;;;;;;5069395;28;19969;-71
2021/08/28 00:30:34;;;;;;;;;;;13.00;99.90;;;;;;5050417;28;19912;-71
2021/08/28 00:33:10;;;;;;;;;;;13.00;99.90;;;;;;5051403;28;20369;-71
2021/08/28 00:35:36;;;;;;;;;;;12.90;99.90;;;;;;5067659;28;19955;-71
2021/08/28 00:38:02;;;;;;;;;;;12.90;99.90;;;;;;5068400;28;20353;-71
2021/08/28 00:40:27;;;;;;;;;;;12.90;99.90;;;;;;5066702;28;20337;-71
2021/08/28 00:42:52;;;;;;;;;;;12.90;99.90;;;;;;5049524;28;19948;-71
2021/08/28 00:45:37;;;;;;;;;;;12.80;99.90;;;;;;5042229;28;19971;-71
2021/08/28 00:48:04;;;;;;;;;;;12.90;99.90;;;;;;5069199;28;19917;-71
2021/08/28 00:50:30;;;;;;;;;;;12.90;99.90;;;;;;5068064;28;19952;-71
2021/08/28 00:52:56;;;;;;;;;;;12.80;99.90;;;;;;5068935;28;20406;-71
2021/08/28 00:55:22;;;;;;;;;;;12.80;99.90;;;;;;5066939;28;19916;-71
2021/08/28 00:57:47;;;;;;;;;;;12.80;99.90;;;;;;5065733;28;19920;-71
2021/08/28 01:00:13;;;;;;;;;;;12.80;99.90;;;;;;5067440;28;19909;-71
2021/08/28 01:02:40;;;;;;;;;;;12.80;99.90;;;;;;5068307;28;19920;-72
2021/08/28 01:05:15;;;;;;;;;;;12.80;99.90;;;;;;5067923;28;20012;-72
2021/08/28 01:07:46;;;;;;;;;;;12.80;99.90;;;;;;5068854;28;19913;-72
2021/08/28 01:10:13;;;;;;;;;;;12.80;99.90;;;;;;5067741;28;19916;-72
2021/08/28 01:12:42;;;;;;;;;;;12.80;99.90;;;;;;5067776;28;20379;-71
2021/08/28 01:15:08;;;;;;;;;;;12.80;99.90;;;;;;5067083;28;19947;-71
2021/08/28 01:17:35;;;;;;;;;;;12.70;99.90;;;;;;5068644;28;20367;-71
2021/08/28 01:20:07;;;;;;;;;;;12.70;99.90;;;;;;5050375;28;19916;-72
2021/08/28 01:22:34;;;;;;;;;;;12.70;99.90;;;;;;5068351;28;19918;-72
2021/08/28 01:25:01;;;;;;;;;;;12.80;99.90;;;;;;5067609;28;19917;-72
2021/08/28 01:27:28;;;;;;;;;;;12.70;99.90;;;;;;5065403;28;20383;-72
2021/08/28 01:29:54;;;;;;;;;;;12.70;99.90;;;;;;5066992;28;19912;-72
2021/08/28 01:32:20;;;;;;;;;;;12.70;99.90;;;;;;5068809;28;20344;-72
2021/08/28 01:34:46;;;;;;;;;;;12.70;99.90;;;;;;5068093;28;19952;-72
2021/08/28 01:37:13;;;;;;;;;;;12.70;99.90;;;;;;5067284;28;20387;-72
2021/08/28 01:39:40;;;;;;;;;;;12.70;99.90;;;;;;5068222;28;19977;-72
2021/08/28 01:42:05;;;;;;;;;;;12.70;99.90;;;;;;5065760;28;20348;-72
2021/08/28 01:44:32;;;;;;;;;;;12.70;99.90;;;;;;5067809;28;19920;-71
2021/08/28 01:46:57;;;;;;;;;;;12.70;99.90;;;;;;5066935;28;19956;-71
2021/08/28 01:49:24;;;;;;;;;;;12.70;99.90;;;;;;5067934;28;19948;-72
2021/08/28 01:51:50;;;;;;;;;;;12.60;99.90;;;;;;5067988;28;19920;-71
2021/08/28 01:54:15;;;;;;;;;;;12.70;99.90;;;;;;5048972;28;19920;-72
2021/08/28 01:56:40;;;;;;;;;;;12.60;99.90;;;;;;5068558;28;19971;-72
2021/08/28 01:59:06;;;;;;;;;;;12.70;99.90;;;;;;5066403;28;19962;-72
2021/08/28 02:01:32;;;;;;;;;;;12.70;99.90;;;;;;5065796;28;20465;-72
2021/08/28 02:03:57;;;;;;;;;;;12.70;99.90;;;;;;5067268;28;19912;-72
2021/08/28 02:06:43;;;;;;;;;;;12.80;99.90;;;;;;5068742;28;19925;-72
2021/08/28 02:09:21;;;;;;;;;;;12.80;99.90;;;;;;5068975;28;20560;-72
2021/08/28 02:11:56;;;;;;;;;;;12.80;99.90;;;;;;5071132;28;19920;-72
2021/08/28 02:14:24;;;;;;;;;;;12.70;99.90;;;;;;5071073;28;19923;-72
2021/08/28 02:16:49;;;;;;;;;;;12.80;99.90;;;;;;5070049;28;19922;-72
2021/08/28 02:19:20;;;;;;;;;;;12.80;99.90;;;;;;5071037;28;20075;-72
2021/08/28 02:21:53;;;;;;;;;;;12.80;99.90;;;;;;5070886;28;19971;-72
2021/08/28 02:24:21;;;;;;;;;;;12.80;99.90;;;;;;5070856;28;19916;-71
2021/08/28 02:27:06;;;;;;;;;;;12.70;99.90;;;;;;5071655;28;20296;-71
2021/08/28 02:29:37;;;;;;;;;;;12.70;99.90;;;;;;5071374;28;19973;-71
2021/08/28 02:32:03;;;;;;;;;;;12.70;99.90;;;;;;5069724;28;19912;-71
2021/08/28 02:34:31;;;;;;;;;;;12.70;99.90;;;;;;5051380;28;19916;-71
2021/08/28 02:36:57;;;;;;;;;;;12.70;99.90;;;;;;5071312;28;20278;-71
2021/08/28 02:39:23;;;;;;;;;;;12.70;99.90;;;;;;5070948;28;19962;-71
2021/08/28 02:41:49;;;;;;;;;;;12.70;99.90;;;;;;5071276;28;20279;-72
2021/08/28 02:44:15;;;;;;;;;;;12.70;99.90;;;;;;5071582;28;19958;-72
2021/08/28 02:46:41;;;;;;;;;;;12.70;99.90;;;;;;5070656;28;20429;-71
2021/08/28 02:49:07;;;;;;;;;;;12.70;99.90;;;;;;5069197;28;19927;-72
2021/08/28 02:51:34;;;;;;;;;;;12.70;99.90;;;;;;5073075;28;19916;-71
2021/08/28 02:54:03;;;;;;;;;;;12.70;99.90;;;;;;5070008;28;19920;-71
2021/08/28 02:56:30;;;;;;;;;;;12.70;99.90;;;;;;5047471;28;19917;-71
2021/08/28 02:58:55;;;;;;;;;;;12.60;99.90;;;;;;5071381;28;19912;-71
2021/08/28 03:01:21;;;;;;;;;;;12.60;99.90;;;;;;5062863;28;19966;-71
2021/08/28 03:03:47;;;;;;;;;;;12.60;99.90;;;;;;5071490;28;19919;-72
2021/08/28 03:06:13;;;;;;;;;;;12.60;99.90;;;;;;5069257;28;19916;-72
2021/08/28 03:08:40;;;;;;;;;;;12.60;99.90;;;;;;5072013;28;20593;-71
2021/08/28 03:11:06;;;;;;;;;;;12.60;99.90;;;;;;5069525;28;19923;-72
2021/08/28 03:13:31;;;;;;;;;;;12.60;99.90;;;;;;5071283;28;19908;-71
2021/08/28 03:15:57;;;;;;;;;;;12.60;99.90;;;;;;5071118;28;20316;-71
2021/08/28 03:18:23;;;;;;;;;;;12.60;99.90;;;;;;5052754;28;19921;-71
2021/08/28 03:20:50;;;;;;;;;;;12.60;99.90;;;;;;5071003;28;20293;-71
2021/08/28 03:23:18;;;;;;;;;;;12.70;99.90;;;;;;5070564;28;19916;-71
2021/08/28 03:25:44;;;;;;;;;;;12.60;99.90;;;;;;5068393;28;19974;-71
2021/08/28 03:28:10;;;;;;;;;;;12.60;99.90;;;;;;5071254;28;19920;-71
2021/08/28 03:30:36;;;;;;;;;;;12.60;99.90;;;;;;5070878;28;19917;-71
2021/08/28 03:33:02;;;;;;;;;;;12.60;99.90;;;;;;5071195;28;19908;-71
2021/08/28 03:35:28;;;;;;;;;;;12.60;99.90;;;;;;5045078;28;19956;-71
2021/08/28 03:37:53;;;;;;;;;;;12.60;99.90;;;;;;5070965;28;19913;-71
2021/08/28 03:40:19;;;;;;;;;;;12.60;99.90;;;;;;5069212;28;19966;-71
2021/08/28 03:42:44;;;;;;;;;;;12.60;99.90;;;;;;5070363;28;20367;-71
2021/08/28 03:45:10;;;;;;;;;;;12.60;99.90;;;;;;5051614;28;19913;-71
2021/08/28 03:47:36;;;;;;;;;;;12.60;99.90;;;;;;5052606;28;19926;-71
2021/08/28 03:50:03;;;;;;;;;;;12.60;99.90;;;;;;5071419;28;20484;-71
2021/08/28 03:52:28;;;;;;;;;;;12.60;99.90;;;;;;5043486;28;20287;-71
2021/08/28 03:54:54;;;;;;;;;;;12.60;99.90;;;;;;5069399;28;19912;-72
2021/08/28 03:57:19;;;;;;;;;;;12.60;99.90;;;;;;5069602;28;20002;-72
2021/08/28 03:59:46;;;;;;;;;;;12.60;99.90;;;;;;5067458;28;21281;-72
2021/08/28 04:02:12;;;;;;;;;;;12.60;99.90;;;;;;5070765;28;19912;-72
2021/08/28 04:04:37;;;;;;;;;;;12.60;99.90;;;;;;5046182;28;19963;-71
2021/08/28 04:07:03;;;;;;;;;;;12.60;99.90;;;;;;5069175;28;19960;-70
2021/08/28 04:09:28;;;;;;;;;;;12.60;99.90;;;;;;5070251;28;19964;-70
2021/08/28 04:11:53;;;;;;;;;;;12.60;99.90;;;;;;5070573;28;19912;-72
2021/08/28 04:14:19;;;;;;;;;;;12.60;99.90;;;;;;5069062;28;19921;-71
2021/08/28 04:16:44;;;;;;;;;;;12.60;99.90;;;;;;5068514;28;20260;-71
2021/08/28 04:19:10;;;;;;;;;;;12.60;99.90;;;;;;5069578;28;19920;-71
2021/08/28 04:21:35;;;;;;;;;;;12.50;99.90;;;;;;5070430;28;19967;-71
2021/08/28 04:24:01;;;;;;;;;;;12.50;99.90;;;;;;5041640;28;19908;-71
2021/08/28 04:26:26;;;;;;;;;;;12.50;99.90;;;;;;5068938;28;19928;-71
2021/08/28 04:28:53;;;;;;;;;;;12.50;99.90;;;;;;5069460;28;19912;-71
2021/08/28 04:31:19;;;;;;;;;;;12.50;99.90;;;;;;5069497;28;19916;-71
2021/08/28 04:33:44;;;;;;;;;;;12.50;99.90;;;;;;5067448;28;19912;-71
2021/08/28 04:36:09;;;;;;;;;;;12.50;99.90;;;;;;5068948;28;20355;-71
2021/08/28 04:38:35;;;;;;;;;;;12.50;99.90;;;;;;5069310;28;19912;-70
2021/08/28 04:41:00;;;;;;;;;;;12.50;99.90;;;;;;5070043;28;19908;-71
2021/08/28 04:43:26;;;;;;;;;;;12.50;99.90;;;;;;5068219;28;19916;-71
2021/08/28 04:45:51;;;;;;;;;;;12.50;99.90;;;;;;5051342;28;19919;-72
2021/08/28 04:48:17;;;;;;;;;;;12.50;99.90;;;;;;5067287;28;19927;-73
2021/08/28 04:50:42;;;;;;;;;;;12.50;99.90;;;;;;5070741;28;19916;-72
2021/08/28 04:53:07;;;;;;;;;;;12.50;99.90;;;;;;5064707;28;19994;-72
2021/08/28 04:55:33;;;;;;;;;;;12.50;99.90;;;;;;5068039;28;19995;-73
2021/08/28 04:57:58;;;;;;;;;;;12.60;99.90;;;;;;5069322;28;19916;-72
2021/08/28 05:00:24;;;;;;;;;;;12.60;99.90;;;;;;5069374;28;19924;-73
2021/08/28 05:02:49;;;;;;;;;;;12.60;99.90;;;;;;5068359;28;20297;-71
2021/08/28 05:05:15;;;;;;;;;;;12.60;99.90;;;;;;5068196;28;20346;-71
2021/08/28 05:07:40;;;;;;;;;;;12.60;99.90;;;;;;5068823;28;19917;-71
2021/08/28 05:10:06;;;;;;;;;;;12.60;99.90;;;;;;5069741;28;19923;-72
2021/08/28 05:12:31;;;;;;;;;;;12.60;99.90;;;;;;5070107;28;20008;-73
2021/08/28 05:14:56;;;;;;;;;;;12.60;99.90;;;;;;5069837;28;19990;-72
2021/08/28 05:17:23;;;;;;;;;;;12.60;99.90;;;;;;5051691;28;19947;-73
2021/08/28 05:19:48;;;;;;;;;;;12.60;99.90;;;;;;5066280;28;19912;-72
2021/08/28 05:22:14;;;;;;;;;;;12.60;99.90;;;;;;5069605;28;19935;-72
2021/08/28 05:24:39;;;;;;;;;;;12.70;99.90;;;;;;5068555;28;20026;-72
2021/08/28 05:27:05;;;;;;;;;;;12.60;99.90;;;;;;5070392;28;20318;-74
2021/08/28 05:29:30;;;;;;;;;;;12.60;99.90;;;;;;5070072;28;19919;-73
2021/08/28 05:31:56;;;;;;;;;;;12.60;99.90;;;;;;5068699;28;19917;-73
2021/08/28 05:34:21;;;;;;;;;;;12.70;99.90;;;;;;5067683;28;20408;-72
2021/08/28 05:36:46;;;;;;;;;;;12.70;99.90;;;;;;5051127;28;19913;-71
2021/08/28 05:39:12;;;;;;;;;;;12.70;99.90;;;;;;5069481;28;20309;-70
2021/08/28 05:41:38;;;;;;;;;;;12.70;99.90;;;;;;5069560;28;20800;-70
2021/08/28 05:44:04;;;;;;;;;;;12.70;99.90;;;;;;5046709;28;19908;-71
2021/08/28 05:46:29;;;;;;;;;;;12.70;99.90;;;;;;5073162;28;19916;-71
2021/08/28 05:48:56;;;;;;;;;;;12.80;99.90;;;;;;5071181;28;19943;-71
2021/08/28 05:51:21;;;;;;;;;;;12.80;99.90;;;;;;5047396;28;19962;-71
2021/08/28 05:53:46;;;;;;;;;;;12.80;99.90;;;;;;5071986;28;19952;-71
2021/08/28 05:56:12;;;;;;;;;;;12.90;99.90;;;;;;5071873;28;20330;-70
2021/08/28 05:58:37;;;;;;;;;;;12.90;99.90;;;;;;5028360;22;20015;-75
2021/08/28 06:01:03;;;;;;;;;;;13.00;99.90;;;;;;4960919;28;19963;-74
2021/08/28 06:03:29;;;;;;;;;;;13.00;99.90;;;;;;4960158;28;19963;-74
2021/08/28 06:05:54;;;;;;;;;;;13.10;99.90;;;;;;4957643;28;19918;-74
2021/08/28 06:08:20;;;;;;;;;;;13.10;99.90;;;;;;4956484;28;20315;-73
2021/08/28 06:10:45;;;;;;;;;;;13.20;99.90;;;;;;4957597;28;19918;-78
2021/08/28 06:13:11;;;;;;;;;;;13.40;99.90;;;;;;4955898;28;19921;-78
2021/08/28 06:15:36;;;;;;;;;;;13.70;99.90;;;;;;4954108;28;19941;-77
2021/08/28 06:18:02;;;;;;;;;;;13.90;99.90;;;;;;4955118;28;20025;-78
2021/08/28 06:20:27;;;;;;;;;;;14.20;99.90;;;;;;4953720;28;19958;-78
2021/08/28 06:22:53;;;;;;;;;;;14.40;99.90;;;;;;4958233;28;19914;-78
2021/08/28 06:25:18;;;;;;;;;;;14.60;99.90;;;;;;4951224;28;19945;-78
2021/08/28 06:27:44;;;;;;;;;;;14.70;99.90;;;;;;4959404;28;19918;-77
2021/08/28 06:30:09;;;;;;;;;;;14.70;99.90;;;;;;4960116;28;20376;-77
2021/08/28 06:32:35;;;;;;;;;;;14.70;99.90;;;;;;4952822;28;19988;-74
2021/08/28 06:35:00;;;;;;;;;;;14.90;99.90;;;;;;4956771;28;19914;-73
2021/08/28 06:37:26;;;;;;;;;;;14.80;99.80;;;;;;4961770;28;19918;-73
2021/08/28 06:39:51;;;;;;;;;;;14.60;99.30;;;;;;4958604;28;19914;-73
2021/08/28 06:42:16;;;;;;;;;;;14.50;99.10;;;;;;4958770;28;19949;-73
2021/08/28 06:44:42;;;;;;;;;;;14.30;99.30;;;;;;4958411;28;19945;-73
2021/08/28 06:47:07;;;;;;;;;;;14.30;99.50;;;;;;4956724;28;19918;-74
2021/08/28 06:49:33;;;;;;;;;;;14.20;99.60;;;;;;4958226;28;20312;-74
2021/08/28 06:51:58;;;;;;;;;;;14.20;99.60;;;;;;4973205;28;19914;-73
2021/08/28 06:54:24;;;;;;;;;;;14.20;99.70;;;;;;4955917;28;20064;-73
2021/08/28 06:56:49;;;;;;;;;;;14.20;99.80;;;;;;4956694;28;19923;-73
2021/08/28 06:59:15;;;;;;;;;;;14.20;99.80;;;;;;4956479;28;19928;-73
2021/08/28 07:01:40;;;;;;;;;;;14.30;99.90;;;;;;4960877;28;19918;-73
2021/08/28 07:04:06;;;;;;;;;;;14.30;99.80;;;;;;4954740;28;20424;-72
2021/08/28 07:06:31;;;;;;;;;;;14.30;99.80;;;;;;4957888;28;19918;-72
2021/08/28 07:08:57;;;;;;;;;;;14.40;99.90;;;;;;4959909;28;19918;-73
2021/08/28 07:11:22;;;;;;;;;;;14.50;99.90;;;;;;4958251;28;20020;-72
2021/08/28 07:13:48;;;;;;;;;;;14.70;99.90;;;;;;4956116;28;20315;-75
2021/08/28 07:16:13;;;;;;;;;;;14.80;99.60;;;;;;4958772;28;19940;-75
2021/08/28 07:18:39;;;;;;;;;;;14.90;99.30;;;;;;4959816;28;19915;-74
2021/08/28 07:21:04;;;;;;;;;;;15.00;99.40;;;;;;4955465;28;19941;-74
2021/08/28 07:23:30;;;;;;;;;;;15.10;99.00;;;;;;4953885;28;19958;-75
2021/08/28 07:25:55;;;;;;;;;;;15.20;99.30;;;;;;4958037;28;19972;-74
2021/08/28 07:28:22;;;;;;;;;;;15.30;98.90;;;;;;4958956;28;19953;-75
2021/08/28 07:30:48;;;;;;;;;;;15.30;98.50;;;;;;4958311;28;19915;-76
2021/08/28 07:33:13;;;;;;;;;;;15.30;98.30;;;;;;4956690;28;19925;-75
2021/08/28 07:35:38;;;;;;;;;;;15.30;98.00;;;;;;4962059;28;19914;-74
2021/08/28 07:38:04;;;;;;;;;;;15.30;98.20;;;;;;4960904;28;19940;-75
2021/08/28 07:40:29;;;;;;;;;;;15.30;97.70;;;;;;4960892;28;19914;-74
2021/08/28 07:42:56;;;;;;;;;;;15.30;97.80;;;;;;4959126;28;20006;-74
2021/08/28 07:45:22;;;;;;;;;;;15.30;98.10;;;;;;4957943;28;20036;-74
2021/08/28 07:47:47;;;;;;;;;;;15.40;98.30;;;;;;4963216;28;20101;-74
2021/08/28 07:50:13;;;;;;;;;;;15.50;98.20;;;;;;4959749;28;19918;-74
2021/08/28 07:52:40;;;;;;;;;;;15.60;98.20;;;;;;4960598;28;19922;-75
2021/08/28 07:55:06;;;;;;;;;;;15.60;97.90;;;;;;4958384;28;20304;-75
2021/08/28 07:57:32;;;;;;;;;;;15.60;97.60;;;;;;4960651;28;20425;-74
2021/08/28 07:59:57;;;;;;;;;;;15.50;97.70;;;;;;4957915;28;19926;-74
2021/08/28 08:02:23;;;;;;;;;;;15.50;97.90;;;;;;4960505;28;20276;-74
2021/08/28 08:04:48;;;;;;;;;;;15.50;97.80;;;;;;4959778;28;20364;-74
2021/08/28 08:07:14;;;;;;;;;;;15.50;97.80;;;;;;4958044;28;20411;-75
2021/08/28 08:09:39;;;;;;;;;;;15.60;97.80;;;;;;4958049;28;19921;-74
2021/08/28 08:12:05;;;;;;;;;;;15.60;97.90;;;;;;4955918;28;20350;-75
2021/08/28 08:14:30;;;;;;;;;;;15.60;97.80;;;;;;4956149;28;19915;-75
2021/08/28 08:16:55;;;;;;;;;;;15.60;97.90;;;;;;4954918;28;20344;-75
2021/08/28 08:19:21;;;;;;;;;;;15.70;97.90;;;;;;4956094;28;19921;-75
2021/08/28 08:21:46;;;;;;;;;;;15.70;97.70;;;;;;4957723;28;19918;-75
2021/08/28 08:24:12;;;;;;;;;;;15.70;97.50;;;;;;4955273;28;19924;-75
2021/08/28 08:26:37;;;;;;;;;;;15.70;97.50;;;;;;4956014;28;20005;-75
2021/08/28 08:29:02;;;;;;;;;;;15.70;97.60;;;;;;4955935;28;19979;-76
2021/08/28 08:31:28;;;;;;;;;;;15.80;97.80;;;;;;4953325;28;20325;-75
2021/08/28 08:33:53;;;;;;;;;;;15.80;97.70;;;;;;4954252;28;20396;-72
2021/08/28 08:36:19;;;;;;;;;;;15.80;97.60;;;;;;4960464;28;20369;-78
2021/08/28 08:38:44;;;;;;;;;;;15.80;98.00;;;;;;4956083;28;20364;-75
2021/08/28 08:41:10;;;;;;;;;;;15.80;97.80;;;;;;4956292;28;20017;-75
2021/08/28 08:43:36;;;;;;;;;;;15.70;97.60;;;;;;4957754;28;20334;-75
2021/08/28 08:46:01;;;;;;;;;;;15.80;97.70;;;;;;4954555;28;19921;-74
2021/08/28 08:48:27;;;;;;;;;;;15.80;97.60;;;;;;4958176;28;20376;-78
2021/08/28 08:50:53;;;;;;;;;;;15.90;97.70;;;;;;4952779;28;19980;-79
2021/08/28 08:53:21;;;;;;;;;;;15.90;97.30;;;;;;4955583;28;20417;-78
2021/08/28 08:55:47;;;;;;;;;;;16.00;97.20;;;;;;4956257;28;19921;-79
2021/08/28 08:58:13;;;;;;;;;;;16.00;97.20;;;;;;4954783;28;19966;-80
2021/08/28 09:00:39;;;;;;;;;;;16.00;96.80;;;;;;4955857;28;20361;-79
2021/08/28 09:03:05;;;;;;;;;;;15.90;96.80;;;;;;4957407;28;19915;-77
2021/08/28 09:05:30;;;;;;;;;;;15.90;96.70;;;;;;4954560;28;19925;-78
2021/08/28 09:07:55;;;;;;;;;;;16.00;97.00;;;;;;4954923;28;19961;-78
2021/08/28 09:10:21;;;;;;;;;;;16.10;96.60;;;;;;4953453;28;19925;-77
2021/08/28 09:12:46;;;;;;;;;;;16.20;96.90;;;;;;4954640;28;19915;-78
2021/08/28 09:15:12;;;;;;;;;;;16.30;96.60;;;;;;4956077;28;20361;-78
2021/08/28 09:17:38;;;;;;;;;;;16.40;96.50;;;;;;4957601;28;20250;-78
2021/08/28 09:20:24;;;;;;;;;;;16.50;96.20;;;;;;4943615;28;20107;-78
2021/08/28 09:23:01;;;;;;;;;;;16.50;96.30;;;;;;4958179;28;19918;-78
2021/08/28 09:25:26;;;;;;;;;;;16.50;95.90;;;;;;4965167;28;19928;-78
2021/08/28 09:27:52;;;;;;;;;;;16.60;95.40;;;;;;4959975;28;19914;-79
2021/08/28 09:30:19;;;;;;;;;;;16.60;95.70;;;;;;4961191;28;19914;-78
2021/08/28 09:32:48;;;;;;;;;;;16.70;95.90;;;;;;4960467;28;19918;-78
2021/08/28 09:35:14;;;;;;;;;;;16.70;95.90;;;;;;4961854;28;19921;-78
2021/08/28 09:37:42;;;;;;;;;;;16.60;95.80;;;;;;4961082;28;19910;-78
2021/08/28 09:40:07;;;;;;;;;;;16.60;95.90;;;;;;4961959;28;20013;-78
2021/08/28 09:42:33;;;;;;;;;;;16.50;96.10;;;;;;4960948;28;20013;-78
2021/08/28 09:45:07;;;;;;;;;;;16.50;96.10;;;;;;4960816;28;19919;-78
2021/08/28 09:47:32;;;;;;;;;;;16.50;96.20;;;;;;4956995;28;19919;-76
2021/08/28 09:49:57;;;;;;;;;;;16.60;96.10;;;;;;4961741;28;20001;-77
2021/08/28 09:52:24;;;;;;;;;;;16.70;96.10;;;;;;4958700;28;20192;-78
2021/08/28 09:54:50;;;;;;;;;;;16.70;95.80;;;;;;4956843;28;19914;-78
2021/08/28 09:57:15;;;;;;;;;;;16.80;96.00;;;;;;4960995;28;20100;-77
2021/08/28 09:59:42;;;;;;;;;;;16.80;95.50;;;;;;4961380;28;20000;-78
2021/08/28 10:02:10;;;;;;;;;;;16.90;95.40;;;;;;4956446;28;20270;-77
2021/08/28 10:04:49;;;;;;;;;;;17.00;95.40;;;;;;4960611;28;19918;-78
2021/08/28 10:07:33;;;;;;;;;;;17.00;95.30;;;;;;4957616;28;19924;-77
2021/08/28 10:10:00;;;;;;;;;;;17.00;94.90;;;;;;4961839;28;19944;-77
2021/08/28 10:12:25;;;;;;;;;;;17.00;94.60;;;;;;4959279;28;19964;-78
2021/08/28 10:14:52;;;;;;;;;;;17.00;94.50;;;;;;4961351;28;20282;-78
2021/08/28 10:17:18;;;;;;;;;;;17.00;94.80;;;;;;4960423;28;19933;-77
2021/08/28 10:19:44;;;;;;;;;;;17.00;94.90;;;;;;4944756;28;20001;-77
2021/08/28 10:22:11;;;;;;;;;;;17.10;94.90;;;;;;4961020;28;19997;-77
2021/08/28 10:24:37;;;;;;;;;;;17.10;94.90;;;;;;4959528;28;19921;-78
2021/08/28 10:27:03;;;;;;;;;;;17.20;94.70;;;;;;4959932;28;19918;-78
2021/08/28 10:29:28;;;;;;;;;;;17.20;94.40;;;;;;4957413;28;19924;-78
2021/08/28 10:31:54;;;;;;;;;;;17.30;94.30;;;;;;4956443;28;19957;-77
2021/08/28 10:34:20;;;;;;;;;;;17.30;93.90;;;;;;4959174;28;19958;-78
2021/08/28 10:36:46;;;;;;;;;;;17.30;94.20;;;;;;4960444;28;19914;-77
2021/08/28 10:39:11;;;;;;;;;;;17.30;94.00;;;;;;4956866;28;19972;-78
2021/08/28 10:41:37;;;;;;;;;;;17.30;93.90;;;;;;4962322;28;20334;-77
2021/08/28 10:44:03;;;;;;;;;;;17.30;94.00;;;;;;4958170;28;20411;-77
2021/08/28 10:46:29;;;;;;;;;;;17.20;94.30;;;;;;4957213;28;19922;-77
2021/08/28 10:48:59;;;;;;;;;;;17.20;94.50;;;;;;4958315;28;19971;-77
2021/08/28 10:51:33;;;;;;;;;;;17.30;94.40;;;;;;4958640;28;19925;-77
2021/08/28 10:54:02;;;;;;;;;;;17.40;94.70;;;;;;4955750;28;19925;-77
2021/08/28 10:56:34;;;;;;;;;;;17.50;94.20;;;;;;4943730;28;19918;-78
2021/08/28 10:59:15;;;;;;;;;;;17.40;93.90;;;;;;4955386;28;19989;-78
2021/08/28 11:01:52;;;;;;;;;;;17.30;94.00;;;;;;4960016;28;20400;-80
2021/08/28 11:04:41;;;;;;;;;;;17.30;94.20;;;;;;4959155;28;20385;-79
2021/08/28 11:07:20;;;;;;;;;;;17.20;94.10;;;;;;4953056;28;19922;-78
2021/08/28 11:10:01;;;;;;;;;;;17.30;94.20;;;;;;4957437;28;19924;-78
2021/08/28 11:12:27;;;;;;;;;;;17.30;93.60;;;;;;4959058;28;19922;-80
2021/08/28 11:14:52;;;;;;;;;;;17.30;93.90;;;;;;4958540;28;19925;-79
2021/08/28 11:17:34;;;;;;;;;;;17.30;93.80;;;;;;4960398;28;19921;-79
2021/08/28 11:20:01;;;;;;;;;;;17.30;94.20;;;;;;4955930;28;19914;-78
2021/08/28 11:22:33;;;;;;;;;;;17.40;94.20;;;;;;4956443;28;19922;-79
2021/08/28 11:25:04;;;;;;;;;;;17.50;94.30;;;;;;4957614;28;19928;-79
2021/08/28 11:27:37;;;;;;;;;;;17.60;94.30;;;;;;4954679;28;20003;-78
2021/08/28 11:30:02;;;;;;;;;;;17.60;94.50;;;;;;4956512;28;19925;-78
2021/08/28 11:32:28;;;;;;;;;;;17.50;94.50;;;;;;4959777;28;19911;-78
2021/08/28 11:34:55;;;;;;;;;;;17.40;94.40;;;;;;4959757;28;19976;-77
2021/08/28 11:37:23;;;;;;;;;;;17.40;94.70;;;;;;4960012;28;19914;-77
2021/08/28 11:39:49;;;;;;;;;;;17.40;94.80;;;;;;4957522;28;19925;-76
2021/08/28 11:42:15;;;;;;;;;;;17.40;95.00;;;;;;4960866;28;19918;-76
2021/08/28 11:44:40;;;;;;;;;;;17.50;94.90;;;;;;4956895;28;19964;-76
2021/08/28 11:47:05;;;;;;;;;;;17.40;94.90;;;;;;4957486;28;19928;-77
2021/08/28 11:49:31;;;;;;;;;;;17.40;94.90;;;;;;4955881;28;19919;-77
2021/08/28 11:51:59;;;;;;;;;;;17.50;94.80;;;;;;4957197;28;19915;-77
2021/08/28 11:54:24;;;;;;;;;;;17.60;94.80;;;;;;4954969;28;19925;-77
2021/08/28 11:56:55;;;;;;;;;;;17.70;94.60;;;;;;4959486;28;19911;-77
2021/08/28 11:59:31;;;;;;;;;;;17.90;94.20;;;;;;4957369;28;19926;-76
2021/08/28 12:01:57;;;;;;;;;;;18.00;94.00;;;;;;4957609;28;19922;-76
2021/08/28 12:04:22;;;;;;;;;;;18.00;93.50;;;;;;4956434;28;19919;-76
2021/08/28 12:06:52;;;;;;;;;;;18.00;93.80;;;;;;4957021;28;20350;-76
2021/08/28 12:09:20;;;;;;;;;;;18.20;93.80;;;;;;4956259;28;19915;-76
2021/08/28 12:11:47;;;;;;;;;;;18.20;93.80;;;;;;4954426;28;19921;-76
2021/08/28 12:14:12;;;;;;;;;;;18.30;93.10;;;;;;4957257;28;19918;-76
2021/08/28 12:16:40;;;;;;;;;;;18.30;93.20;;;;;;4941651;28;19938;-76
2021/08/28 12:19:05;;;;;;;;;;;18.30;93.00;;;;;;4944172;28;19915;-76
2021/08/28 12:21:32;;;;;;;;;;;18.30;92.80;;;;;;4956711;28;19921;-76
2021/08/28 12:24:10;;;;;;;;;;;18.20;92.40;;;;;;4940770;28;19914;-76
2021/08/28 12:26:35;;;;;;;;;;;18.10;92.70;;;;;;4958864;28;19929;-76
2021/08/28 12:29:02;;;;;;;;;;;18.20;93.00;;;;;;4958697;28;20352;-76
2021/08/28 12:31:30;;;;;;;;;;;18.40;93.20;;;;;;4959124;28;19921;-75
2021/08/28 12:33:55;;;;;;;;;;;18.50;92.20;;;;;;4958396;28;20073;-77
2021/08/28 12:36:28;;;;;;;;;;;18.50;92.10;;;;;;4958955;28;20444;-76
2021/08/28 12:39:04;;;;;;;;;;;18.60;92.40;;;;;;4959914;28;20023;-76
2021/08/28 12:41:30;;;;;;;;;;;18.70;92.20;;;;;;4956440;28;19967;-76
2021/08/28 12:43:56;;;;;;;;;;;18.80;91.70;;;;;;4957177;28;19918;-76
2021/08/28 12:46:21;;;;;;;;;;;18.80;91.20;;;;;;4959032;28;20385;-76
2021/08/28 12:49:05;;;;;;;;;;;18.90;91.80;;;;;;4958495;28;19964;-76
2021/08/28 12:51:31;;;;;;;;;;;19.00;92.00;;;;;;4957223;28;20333;-77
2021/08/28 12:53:56;;;;;;;;;;;19.10;91.80;;;;;;4958269;28;19990;-76
2021/08/28 12:56:22;;;;;;;;;;;19.20;91.70;;;;;;4957724;28;20309;-76
2021/08/28 12:58:47;;;;;;;;;;;19.20;91.00;;;;;;4957460;28;19925;-75
2021/08/28 13:01:12;;;;;;;;;;;19.20;91.20;;;;;;4961808;28;20579;-75
2021/08/28 13:03:46;;;;;;;;;;;19.10;90.90;;;;;;4957073;28;19941;-76
2021/08/28 13:06:22;;;;;;;;;;;19.20;91.50;;;;;;4955818;28;19914;-76
2021/08/28 13:08:47;;;;;;;;;;;19.30;91.50;;;;;;4958170;28;20025;-76
2021/08/28 13:11:18;;;;;;;;;;;19.40;91.60;;;;;;4956233;28;20420;-76
2021/08/28 13:14:13;;;;;;;;;;;19.60;91.30;;;;;;4957079;28;19922;-76
2021/08/28 13:16:51;;;;;;;;;;;19.60;90.50;;;;;;4974533;28;19919;-76
2021/08/28 13:19:17;;;;;;;;;;;19.50;90.70;;;;;;4961474;28;19911;-76
2021/08/28 13:21:43;;;;;;;;;;;19.70;90.90;;;;;;4958031;28;19918;-76
2021/08/28 13:24:10;;;;;;;;;;;19.80;90.40;;;;;;4959274;28;19953;-75
2021/08/28 13:26:54;;;;;;;;;;;19.80;90.80;;;;;;4974390;28;19992;-75
2021/08/28 13:29:26;;;;;;;;;;;19.90;90.20;;;;;;4960615;28;19911;-76
2021/08/28 13:32:08;;;;;;;;;;;19.80;90.20;;;;;;4959161;28;19914;-76
2021/08/28 13:34:44;;;;;;;;;;;19.70;90.60;;;;;;4959809;28;19963;-76
2021/08/28 13:37:10;;;;;;;;;;;19.60;90.50;;;;;;4959901;28;20009;-75
2021/08/28 13:39:37;;;;;;;;;;;19.40;90.60;;;;;;4960824;28;20104;-75
2021/08/28 13:42:02;;;;;;;;;;;19.30;91.00;;;;;;4958892;28;20025;-75
2021/08/28 13:44:28;;;;;;;;;;;19.30;90.90;;;;;;4957581;28;20459;-76
2021/08/28 13:46:53;;;;;;;;;;;19.20;90.90;;;;;;4957917;28;20006;-76
2021/08/28 13:49:19;;;;;;;;;;;19.20;91.00;;;;;;4959562;28;19911;-76
2021/08/28 13:51:44;;;;;;;;;;;19.20;91.00;;;;;;4960098;28;20402;-75
2021/08/28 13:54:10;;;;;;;;;;;19.20;91.20;;;;;;4957996;28;20419;-76
2021/08/28 13:56:35;;;;;;;;;;;19.10;91.30;;;;;;4957332;28;19972;-76
2021/08/28 13:59:01;;;;;;;;;;;19.10;91.70;;;;;;4956046;28;19930;-76
2021/08/28 14:01:27;;;;;;;;;;;19.00;91.60;;;;;;4956545;28;20336;-77
2021/08/28 14:03:52;;;;;;;;;;;18.90;91.60;;;;;;4957157;28;19914;-76
2021/08/28 14:06:18;;;;;;;;;;;18.90;91.90;;;;;;4962306;28;19910;-76
2021/08/28 14:08:43;;;;;;;;;;;18.70;91.90;;;;;;4944482;28;19925;-76
2021/08/28 14:11:09;;;;;;;;;;;18.70;92.30;;;;;;4961002;28;19915;-76
2021/08/28 14:13:34;;;;;;;;;;;18.60;92.90;;;;;;4960871;28;19968;-76
2021/08/28 14:16:00;;;;;;;;;;;18.50;93.40;;;;;;4944655;28;19914;-76